Terminal Aerodrome Forecast
Issued by NWS Flagstaff, AZ

Home | Current Version | Previous Version | Text Only | Print | Product List | Glossary On
Versions: 1 2 3 4 5 6 7 8 9 10 11 12 13 14 15 16
000
FTUS45 KFGZ 271740
TAFFLG
TAF
KFLG 271740Z 2718/2818 22018G28KT P6SM BKN040 BKN100
      TEMPO 2723/2803 5SM SHRA BKN020 OVC040
     FM280300 24010G15KT P6SM -SHRA BKN025 OVC040
     FM280500 24008KT 6SM -SHSN BKN025 OVC040
     FM280900 24008KT P6SM OVC025
     FM281300 02012G20KT P6SM SCT040=

USA.gov is the U.S. government's official web portal to all federal, state and local government web resources and services.